Time;durP1;ratioP1;P1;durP2;ratioP2;P2;SDS_P1;SDS_P2;PMS_P1;PMS_P2;Temp;Humidity;BMP_temperature;BMP_pressure;BME280_temperature;BME280_humidity;BME280_pressure;Samples;Min_cycle;Max_cycle;Signal;HPM_P1;HPM_P2
2023/03/29 00:01:56;;;;;;;;;;;25.20;99.90;;;;;;4937168;29;19943;-49
2023/03/29 00:04:22;;;;;;;;;;;25.30;99.90;;;;;;4937301;29;19911;-48
2023/03/29 00:06:49;;;;;;;;;;;25.20;99.90;;;;;;4951700;29;19929;-48
2023/03/29 00:09:14;;;;;;;;;;;25.20;99.90;;;;;;4937190;29;19989;-48
2023/03/29 00:11:41;;;;;;;;;;;25.20;99.90;;;;;;4936931;29;20353;-48
2023/03/29 00:14:06;;;;;;;;;;;25.20;99.90;;;;;;4937047;29;20397;-48
2023/03/29 00:16:32;;;;;;;;;;;25.20;99.90;;;;;;4936742;29;19947;-48
2023/03/29 00:18:58;;;;;;;;;;;25.20;99.90;;;;;;4937209;29;19907;-48
2023/03/29 00:21:23;;;;;;;;;;;25.10;99.90;;;;;;4936993;29;20356;-48
2023/03/29 00:23:49;;;;;;;;;;;25.10;99.90;;;;;;4936425;29;19914;-48
2023/03/29 00:26:15;;;;;;;;;;;25.10;99.90;;;;;;4936992;29;19914;-48
2023/03/29 00:28:40;;;;;;;;;;;25.10;99.90;;;;;;4936637;29;19911;-48
2023/03/29 00:31:07;;;;;;;;;;;25.10;99.90;;;;;;4936611;29;19954;-48
2023/03/29 00:33:33;;;;;;;;;;;25.10;99.90;;;;;;4934190;29;19997;-48
2023/03/29 00:35:59;;;;;;;;;;;25.10;99.90;;;;;;4936577;29;20002;-48
2023/03/29 00:38:25;;;;;;;;;;;25.10;99.90;;;;;;4936011;29;20385;-48
2023/03/29 00:40:50;;;;;;;;;;;25.10;99.90;;;;;;4936317;29;19906;-48
2023/03/29 00:43:16;;;;;;;;;;;25.10;99.90;;;;;;4936228;29;19915;-48
2023/03/29 00:45:42;;;;;;;;;;;25.00;99.90;;;;;;4936174;29;19950;-48
2023/03/29 00:48:28;;;;;;;;;;;25.00;99.90;;;;;;4936227;29;19907;-48
2023/03/29 00:51:02;;;;;;;;;;;25.00;99.90;;;;;;4936304;29;20379;-48
2023/03/29 00:53:41;;;;;;;;;;;25.00;99.90;;;;;;4935889;29;20386;-48
2023/03/29 00:56:10;;;;;;;;;;;25.00;99.90;;;;;;4936261;29;19906;-48
2023/03/29 00:58:40;;;;;;;;;;;25.00;99.90;;;;;;4936072;29;19913;-48
2023/03/29 01:01:09;;;;;;;;;;;25.00;99.90;;;;;;4936571;29;19965;-48
2023/03/29 01:03:40;;;;;;;;;;;25.00;99.90;;;;;;4935750;29;19929;-48
2023/03/29 01:06:07;;;;;;;;;;;25.00;99.90;;;;;;4936095;29;19907;-48
2023/03/29 01:08:44;;;;;;;;;;;25.00;99.90;;;;;;4935863;29;19910;-48
2023/03/29 01:11:13;;;;;;;;;;;25.00;99.90;;;;;;4936085;29;19964;-48
2023/03/29 01:13:45;;;;;;;;;;;25.00;99.90;;;;;;4966720;28;19934;-48
2023/03/29 01:16:11;;;;;;;;;;;25.00;99.90;;;;;;4935826;29;19911;-48
2023/03/29 01:18:37;;;;;;;;;;;24.90;99.90;;;;;;4935808;29;19914;-48
2023/03/29 01:21:15;;;;;;;;;;;24.90;99.90;;;;;;4950534;29;19911;-49
2023/03/29 01:23:42;;;;;;;;;;;24.90;99.90;;;;;;4935633;29;19918;-49
2023/03/29 01:26:13;;;;;;;;;;;24.90;99.90;;;;;;4950562;29;19907;-48
2023/03/29 01:28:43;;;;;;;;;;;24.90;99.90;;;;;;4935627;29;19906;-48
2023/03/29 01:31:15;;;;;;;;;;;24.90;99.90;;;;;;4935542;29;19992;-47
2023/03/29 01:33:43;;;;;;;;;;;24.90;99.90;;;;;;4935430;29;19910;-48
2023/03/29 01:36:17;;;;;;;;;;;24.90;99.90;;;;;;4935478;29;19910;-49
2023/03/29 01:38:49;;;;;;;;;;;24.80;99.90;;;;;;4949836;29;19911;-48
2023/03/29 01:41:15;;;;;;;;;;;24.80;99.90;;;;;;4935435;29;19954;-49
2023/03/29 01:43:47;;;;;;;;;;;24.80;99.90;;;;;;4935289;29;19918;-49
2023/03/29 01:46:31;;;;;;;;;;;24.80;99.90;;;;;;4935311;29;19918;-48
2023/03/29 01:49:16;;;;;;;;;;;24.80;99.90;;;;;;4935438;29;19929;-48
2023/03/29 01:51:54;;;;;;;;;;;24.80;99.90;;;;;;4935145;29;19954;-48
2023/03/29 01:54:23;;;;;;;;;;;24.80;99.90;;;;;;4935583;29;20005;-48
2023/03/29 01:56:49;;;;;;;;;;;24.80;99.90;;;;;;4935698;29;19994;-48
2023/03/29 01:59:21;;;;;;;;;;;24.80;99.90;;;;;;4935843;29;19958;-48
2023/03/29 02:01:52;;;;;;;;;;;24.70;99.90;;;;;;4935018;29;20268;-49
2023/03/29 02:04:21;;;;;;;;;;;24.70;99.90;;;;;;4935442;29;19921;-48
2023/03/29 02:06:49;;;;;;;;;;;24.80;99.90;;;;;;4935365;29;19993;-48
2023/03/29 02:09:15;;;;;;;;;;;24.70;99.90;;;;;;4922790;29;19906;-48
2023/03/29 02:11:41;;;;;;;;;;;24.70;99.90;;;;;;4935360;29;19907;-48
2023/03/29 02:14:08;;;;;;;;;;;24.70;99.90;;;;;;4935240;29;19906;-48
2023/03/29 02:16:35;;;;;;;;;;;24.70;99.90;;;;;;4935017;29;19962;-48
2023/03/29 02:19:01;;;;;;;;;;;24.70;99.90;;;;;;4965821;28;20336;-48
2023/03/29 02:21:36;;;;;;;;;;;24.70;99.90;;;;;;4935268;29;19922;-48
2023/03/29 02:24:05;;;;;;;;;;;24.70;99.90;;;;;;4949441;29;19915;-48
2023/03/29 02:26:31;;;;;;;;;;;24.70;99.90;;;;;;4935165;29;19953;-48
2023/03/29 02:28:56;;;;;;;;;;;24.70;99.90;;;;;;4934919;29;19946;-48
2023/03/29 02:31:43;;;;;;;;;;;24.70;99.90;;;;;;4934907;29;20454;-48
2023/03/29 02:34:16;;;;;;;;;;;24.70;99.90;;;;;;4935392;29;19907;-48
2023/03/29 02:36:45;;;;;;;;;;;24.70;99.90;;;;;;4965975;28;19906;-48
2023/03/29 02:39:14;;;;;;;;;;;24.60;99.90;;;;;;4935023;29;19906;-48
2023/03/29 02:41:41;;;;;;;;;;;24.60;99.90;;;;;;4935216;29;19914;-48
2023/03/29 02:44:09;;;;;;;;;;;24.60;99.90;;;;;;4934839;29;20022;-49
2023/03/29 02:46:36;;;;;;;;;;;24.60;99.90;;;;;;4934747;29;19942;-48
2023/03/29 02:49:04;;;;;;;;;;;24.60;99.90;;;;;;4934852;29;19910;-48
2023/03/29 02:51:33;;;;;;;;;;;24.60;99.90;;;;;;4934906;29;19913;-48
2023/03/29 02:54:02;;;;;;;;;;;24.60;99.90;;;;;;4934601;29;19985;-48
2023/03/29 02:56:27;;;;;;;;;;;24.60;99.90;;;;;;4965630;28;19911;-48
2023/03/29 02:58:53;;;;;;;;;;;24.60;99.90;;;;;;4934554;29;19907;-48
2023/03/29 03:01:19;;;;;;;;;;;24.60;99.90;;;;;;4976799;23;19922;-57
2023/03/29 03:03:45;;;;;;;;;;;24.50;99.90;;;;;;4938076;29;20287;-57
2023/03/29 03:06:12;;;;;;;;;;;24.50;99.90;;;;;;4938511;29;20022;-56
2023/03/29 03:08:38;;;;;;;;;;;24.50;99.90;;;;;;4952776;29;20021;-56
2023/03/29 03:11:04;;;;;;;;;;;24.50;99.90;;;;;;4952848;29;19911;-56
2023/03/29 03:13:30;;;;;;;;;;;24.50;99.90;;;;;;4938001;29;19929;-57
2023/03/29 03:15:56;;;;;;;;;;;24.50;99.90;;;;;;4937842;29;19910;-57
2023/03/29 03:18:22;;;;;;;;;;;24.50;99.90;;;;;;4938250;29;19907;-57
2023/03/29 03:20:57;;;;;;;;;;;24.50;99.90;;;;;;4937989;29;19922;-56
2023/03/29 03:23:23;;;;;;;;;;;24.50;99.90;;;;;;4937639;29;19922;-57
2023/03/29 03:25:49;;;;;;;;;;;24.50;99.90;;;;;;4937732;29;19906;-57
2023/03/29 03:28:15;;;;;;;;;;;24.50;99.90;;;;;;4937764;29;20357;-57
2023/03/29 03:30:41;;;;;;;;;;;24.50;99.90;;;;;;4937781;29;20370;-56
2023/03/29 03:33:06;;;;;;;;;;;24.50;99.90;;;;;;4952354;29;19954;-57
2023/03/29 03:35:32;;;;;;;;;;;24.40;99.90;;;;;;4937580;29;19913;-57
2023/03/29 03:37:58;;;;;;;;;;;24.40;99.90;;;;;;4937398;29;19997;-57
2023/03/29 03:40:23;;;;;;;;;;;24.40;99.90;;;;;;4937415;29;19965;-57
2023/03/29 03:42:49;;;;;;;;;;;24.40;99.90;;;;;;4952231;29;20009;-57
2023/03/29 03:45:15;;;;;;;;;;;24.40;99.90;;;;;;4937362;29;20028;-57
2023/03/29 03:47:41;;;;;;;;;;;24.40;99.90;;;;;;4937676;29;19907;-56
2023/03/29 03:50:07;;;;;;;;;;;24.40;99.90;;;;;;4937176;29;19907;-57
2023/03/29 03:52:33;;;;;;;;;;;24.40;99.90;;;;;;4937248;29;20371;-57
2023/03/29 03:55:01;;;;;;;;;;;24.40;99.90;;;;;;4937049;29;19906;-57
2023/03/29 03:57:27;;;;;;;;;;;24.40;99.90;;;;;;4951818;29;19914;-57
2023/03/29 03:59:52;;;;;;;;;;;24.30;99.90;;;;;;4937301;29;19914;-57
2023/03/29 04:02:19;;;;;;;;;;;24.40;99.90;;;;;;4937415;29;19919;-57
2023/03/29 04:04:45;;;;;;;;;;;24.30;99.90;;;;;;4951811;29;19932;-57
2023/03/29 04:07:13;;;;;;;;;;;24.30;99.90;;;;;;4937244;29;19962;-58
2023/03/29 04:09:38;;;;;;;;;;;24.30;99.90;;;;;;4937195;29;20359;-58
2023/03/29 04:12:04;;;;;;;;;;;24.30;99.90;;;;;;4936776;29;19918;-58
2023/03/29 04:14:31;;;;;;;;;;;24.30;99.90;;;;;;4936485;29;19962;-57
2023/03/29 04:16:56;;;;;;;;;;;24.30;99.90;;;;;;4936760;29;19911;-57
2023/03/29 04:19:22;;;;;;;;;;;24.30;99.90;;;;;;4936856;29;20274;-57
2023/03/29 04:21:48;;;;;;;;;;;24.30;99.90;;;;;;4967464;28;19907;-58
2023/03/29 04:24:15;;;;;;;;;;;24.30;99.90;;;;;;4936618;29;19969;-58
2023/03/29 04:26:40;;;;;;;;;;;24.30;99.90;;;;;;4937116;29;19907;-58
2023/03/29 04:29:06;;;;;;;;;;;24.30;99.90;;;;;;4936701;29;19906;-57
2023/03/29 04:31:32;;;;;;;;;;;24.20;99.90;;;;;;4936408;29;19914;-57
2023/03/29 04:33:58;;;;;;;;;;;24.30;99.90;;;;;;4936587;29;19907;-56
2023/03/29 04:36:23;;;;;;;;;;;24.30;99.90;;;;;;4936400;29;19973;-56
2023/03/29 04:38:51;;;;;;;;;;;24.20;99.90;;;;;;4936166;29;20343;-57
2023/03/29 04:41:17;;;;;;;;;;;24.20;99.90;;;;;;4936425;29;19907;-55
2023/03/29 04:43:45;;;;;;;;;;;24.20;99.90;;;;;;4935058;29;19914;-56
2023/03/29 04:46:12;;;;;;;;;;;24.20;99.90;;;;;;4936506;29;19956;-56
2023/03/29 04:48:38;;;;;;;;;;;24.20;99.90;;;;;;4936247;29;20315;-57
2023/03/29 04:51:03;;;;;;;;;;;24.20;99.90;;;;;;4936365;29;19914;-56
2023/03/29 04:53:29;;;;;;;;;;;24.20;99.90;;;;;;4936134;29;19907;-58
2023/03/29 04:55:56;;;;;;;;;;;24.20;99.90;;;;;;4936276;29;20506;-59
2023/03/29 04:58:22;;;;;;;;;;;24.20;99.90;;;;;;4936236;29;19927;-58
2023/03/29 05:00:48;;;;;;;;;;;24.10;99.90;;;;;;4935858;29;20384;-55
2023/03/29 05:03:14;;;;;;;;;;;24.10;99.90;;;;;;4936164;29;19915;-57
2023/03/29 05:05:40;;;;;;;;;;;24.10;99.90;;;;;;4935977;29;19913;-57
2023/03/29 05:08:08;;;;;;;;;;;24.10;99.90;;;;;;4935696;29;20375;-57
2023/03/29 05:10:34;;;;;;;;;;;24.10;99.90;;;;;;4950484;29;19907;-58
2023/03/29 05:13:02;;;;;;;;;;;24.10;99.90;;;;;;4935868;29;19907;-58
2023/03/29 05:15:29;;;;;;;;;;;24.10;99.90;;;;;;4931294;29;19907;-59
2023/03/29 05:17:54;;;;;;;;;;;24.10;99.90;;;;;;4925611;29;20355;-59
2023/03/29 05:20:21;;;;;;;;;;;24.10;99.90;;;;;;4935850;29;19945;-57
2023/03/29 05:22:47;;;;;;;;;;;24.10;99.90;;;;;;4935997;29;20009;-57
2023/03/29 05:25:13;;;;;;;;;;;24.10;99.90;;;;;;4935085;29;20001;-58
2023/03/29 05:27:38;;;;;;;;;;;24.10;99.90;;;;;;4935734;29;20368;-57
2023/03/29 05:30:04;;;;;;;;;;;24.10;99.90;;;;;;4935598;29;19907;-57
2023/03/29 05:32:30;;;;;;;;;;;24.10;99.90;;;;;;4950185;29;19906;-59
2023/03/29 05:34:55;;;;;;;;;;;24.10;99.90;;;;;;4935843;29;19919;-58
2023/03/29 05:37:21;;;;;;;;;;;24.10;99.90;;;;;;4935278;29;19914;-56
2023/03/29 05:39:48;;;;;;;;;;;24.10;99.90;;;;;;4935674;29;20001;-58
2023/03/29 05:42:14;;;;;;;;;;;24.10;99.90;;;;;;4950141;29;20037;-58
2023/03/29 05:44:40;;;;;;;;;;;24.00;99.90;;;;;;4950148;29;19936;-58
2023/03/29 05:47:06;;;;;;;;;;;24.00;99.90;;;;;;4934967;29;19907;-57
2023/03/29 05:49:31;;;;;;;;;;;24.00;99.90;;;;;;4935212;29;19907;-57
2023/03/29 05:51:57;;;;;;;;;;;24.00;99.90;;;;;;4935175;29;19906;-57
2023/03/29 05:54:24;;;;;;;;;;;24.00;99.90;;;;;;4935125;29;19918;-58
2023/03/29 05:57:07;;;;;;;;;;;24.00;99.90;;;;;;4935052;29;19913;-58
2023/03/29 05:59:33;;;;;;;;;;;24.00;99.90;;;;;;4934891;29;20013;-57
2023/03/29 06:02:03;;;;;;;;;;;23.90;99.90;;;;;;4934981;29;20385;-58
2023/03/29 06:04:29;;;;;;;;;;;23.90;99.90;;;;;;4935299;29;19915;-57
2023/03/29 06:06:55;;;;;;;;;;;23.90;99.90;;;;;;4949851;29;19913;-55
2023/03/29 06:09:21;;;;;;;;;;;23.90;99.90;;;;;;4935049;29;19993;-57
2023/03/29 06:11:47;;;;;;;;;;;23.90;99.90;;;;;;4935209;29;19907;-57
2023/03/29 06:14:13;;;;;;;;;;;23.90;99.90;;;;;;4935022;29;19910;-56
2023/03/29 06:16:39;;;;;;;;;;;23.90;99.90;;;;;;4934973;29;19914;-58
2023/03/29 06:19:05;;;;;;;;;;;23.90;99.90;;;;;;4934977;29;19914;-59
2023/03/29 06:21:31;;;;;;;;;;;23.90;99.90;;;;;;4935157;29;19907;-57
2023/03/29 06:23:57;;;;;;;;;;;23.90;99.90;;;;;;4934627;29;19915;-58
2023/03/29 06:26:23;;;;;;;;;;;23.90;99.90;;;;;;4935420;29;19914;-57
2023/03/29 06:28:49;;;;;;;;;;;23.90;99.90;;;;;;4934948;29;20335;-57
2023/03/29 06:31:15;;;;;;;;;;;23.90;99.90;;;;;;4934882;29;19907;-57
2023/03/29 06:33:42;;;;;;;;;;;23.90;99.90;;;;;;4934977;29;19962;-58
2023/03/29 06:36:08;;;;;;;;;;;23.90;99.90;;;;;;4935756;29;19906;-58
2023/03/29 06:38:34;;;;;;;;;;;23.80;99.90;;;;;;4938649;29;19949;-57
2023/03/29 06:41:01;;;;;;;;;;;23.80;99.90;;;;;;4938587;29;19946;-56
2023/03/29 06:43:26;;;;;;;;;;;23.80;99.90;;;;;;4938433;29;20359;-56
2023/03/29 06:45:52;;;;;;;;;;;23.80;99.90;;;;;;4953266;29;19970;-58
2023/03/29 06:48:18;;;;;;;;;;;23.90;99.90;;;;;;4938757;29;19954;-57
2023/03/29 06:50:43;;;;;;;;;;;23.80;99.90;;;;;;4938548;29;19906;-56
2023/03/29 06:53:09;;;;;;;;;;;23.80;99.90;;;;;;4938430;29;20005;-57
2023/03/29 06:55:35;;;;;;;;;;;23.80;99.90;;;;;;4938250;29;19906;-58
2023/03/29 06:58:00;;;;;;;;;;;23.80;99.90;;;;;;4938300;29;19907;-57
2023/03/29 07:00:29;;;;;;;;;;;23.80;99.90;;;;;;4937846;29;19993;-56
2023/03/29 07:03:00;;;;;;;;;;;23.80;99.90;;;;;;4938177;29;20006;-58
2023/03/29 07:05:26;;;;;;;;;;;23.80;99.90;;;;;;4938064;29;19914;-58
2023/03/29 07:07:55;;;;;;;;;;;23.90;99.90;;;;;;4938089;29;20003;-58
2023/03/29 07:10:25;;;;;;;;;;;23.80;99.90;;;;;;4938185;29;19948;-58
2023/03/29 07:12:51;;;;;;;;;;;23.90;99.90;;;;;;4938386;29;20355;-58
2023/03/29 07:15:17;;;;;;;;;;;23.80;99.90;;;;;;4938234;29;19906;-58
2023/03/29 07:17:43;;;;;;;;;;;23.80;99.90;;;;;;4937840;29;19911;-58
2023/03/29 07:20:12;;;;;;;;;;;23.80;99.90;;;;;;4937982;29;20295;-58
2023/03/29 07:22:39;;;;;;;;;;;23.80;99.90;;;;;;4937850;29;19915;-58
2023/03/29 07:25:08;;;;;;;;;;;23.80;99.90;;;;;;4968536;28;19975;-58
2023/03/29 07:27:34;;;;;;;;;;;23.90;99.90;;;;;;4937906;29;19954;-58
2023/03/29 07:30:00;;;;;;;;;;;23.80;99.90;;;;;;4937833;29;19907;-59
2023/03/29 07:32:26;;;;;;;;;;;23.90;99.90;;;;;;4937587;29;20367;-58
2023/03/29 07:34:52;;;;;;;;;;;23.90;99.90;;;;;;4938006;29;20310;-58
2023/03/29 07:37:17;;;;;;;;;;;23.90;99.90;;;;;;4937490;29;19906;-61
2023/03/29 07:39:43;;;;;;;;;;;23.90;99.90;;;;;;4937396;29;19911;-58
2023/03/29 07:42:09;;;;;;;;;;;23.90;99.90;;;;;;4937457;29;20420;-58
2023/03/29 07:44:34;;;;;;;;;;;23.90;99.90;;;;;;4937551;29;20278;-58
2023/03/29 07:47:00;;;;;;;;;;;23.90;99.90;;;;;;4937012;29;19955;-58
2023/03/29 07:49:26;;;;;;;;;;;23.90;99.90;;;;;;4936844;29;19949;-58
2023/03/29 07:51:53;;;;;;;;;;;24.00;99.90;;;;;;4937475;29;19930;-57
2023/03/29 07:54:19;;;;;;;;;;;24.00;99.90;;;;;;4952098;29;19907;-58
2023/03/29 07:56:46;;;;;;;;;;;24.00;99.90;;;;;;4937218;29;20279;-58
2023/03/29 07:59:12;;;;;;;;;;;24.00;99.90;;;;;;4937216;29;19917;-59
2023/03/29 08:01:39;;;;;;;;;;;24.00;99.90;;;;;;4951400;29;19919;-59
2023/03/29 08:04:05;;;;;;;;;;;24.00;99.90;;;;;;4937182;29;19915;-59
2023/03/29 08:06:31;;;;;;;;;;;24.00;99.90;;;;;;4937163;29;19914;-58
2023/03/29 08:08:57;;;;;;;;;;;24.10;99.90;;;;;;4951565;29;19906;-59
2023/03/29 08:11:23;;;;;;;;;;;24.10;99.90;;;;;;4951943;29;20334;-58
2023/03/29 08:13:50;;;;;;;;;;;24.10;99.90;;;;;;4936880;29;20248;-58
2023/03/29 08:16:16;;;;;;;;;;;24.10;99.90;;;;;;4936746;29;20009;-58
2023/03/29 08:18:42;;;;;;;;;;;24.10;99.90;;;;;;4936735;29;19946;-58
2023/03/29 08:21:07;;;;;;;;;;;24.10;99.90;;;;;;4936840;29;19949;-57
2023/03/29 08:23:33;;;;;;;;;;;24.10;99.90;;;;;;4936544;29;19984;-58
2023/03/29 08:25:59;;;;;;;;;;;24.10;99.90;;;;;;4935513;29;19910;-58
2023/03/29 08:28:24;;;;;;;;;;;24.10;99.90;;;;;;4936804;29;20352;-58
2023/03/29 08:30:50;;;;;;;;;;;24.10;99.90;;;;;;4936737;29;20260;-58
2023/03/29 08:33:16;;;;;;;;;;;24.20;99.90;;;;;;4936644;29;19977;-57
2023/03/29 08:35:41;;;;;;;;;;;24.20;99.90;;;;;;4936492;29;19907;-57
2023/03/29 08:38:07;;;;;;;;;;;24.20;99.90;;;;;;4936453;29;19907;-57
2023/03/29 08:40:33;;;;;;;;;;;24.20;99.90;;;;;;4936359;29;20291;-57
2023/03/29 08:43:19;;;;;;;;;;;24.20;99.90;;;;;;4936439;29;20280;-57
2023/03/29 08:45:55;;;;;;;;;;;24.20;99.90;;;;;;4919620;29;19960;-57
2023/03/29 08:48:27;;;;;;;;;;;24.20;99.90;;;;;;4951071;29;19907;-58
2023/03/29 08:50:54;;;;;;;;;;;24.20;99.90;;;;;;4936451;29;19914;-57
2023/03/29 08:53:23;;;;;;;;;;;24.30;99.90;;;;;;4936192;29;19913;-59
2023/03/29 08:55:51;;;;;;;;;;;24.30;99.90;;;;;;4936444;29;19961;-57
2023/03/29 08:58:19;;;;;;;;;;;24.30;99.90;;;;;;4936068;29;20584;-57
2023/03/29 09:00:47;;;;;;;;;;;24.30;99.90;;;;;;4935485;29;19919;-59
2023/03/29 09:03:20;;;;;;;;;;;24.30;99.90;;;;;;4936103;29;19918;-59
2023/03/29 09:05:48;;;;;;;;;;;24.30;99.90;;;;;;4936194;29;20283;-58
2023/03/29 09:08:17;;;;;;;;;;;24.30;99.90;;;;;;4935975;29;19911;-58
2023/03/29 09:10:46;;;;;;;;;;;24.30;99.90;;;;;;4935901;29;19906;-59
2023/03/29 09:13:20;;;;;;;;;;;24.30;99.90;;;;;;4935719;29;20330;-58
2023/03/29 09:15:50;;;;;;;;;;;24.30;99.90;;;;;;4935631;29;19914;-59
2023/03/29 09:18:22;;;;;;;;;;;24.30;99.90;;;;;;4935826;29;19907;-58
2023/03/29 09:20:50;;;;;;;;;;;24.30;99.90;;;;;;4935694;29;19907;-59
2023/03/29 09:23:27;;;;;;;;;;;24.40;99.90;;;;;;4935633;29;20077;-59
2023/03/29 09:26:02;;;;;;;;;;;24.40;99.90;;;;;;4935622;29;20252;-59
2023/03/29 09:28:36;;;;;;;;;;;24.40;99.90;;;;;;4935701;29;19998;-58
2023/03/29 09:31:14;;;;;;;;;;;24.40;99.90;;;;;;4935439;29;19914;-57
2023/03/29 09:33:42;;;;;;;;;;;24.40;99.90;;;;;;4935498;29;20049;-58
2023/03/29 09:36:16;;;;;;;;;;;24.40;99.90;;;;;;4935521;29;20344;-57
2023/03/29 09:38:43;;;;;;;;;;;24.50;99.90;;;;;;4935363;29;20013;-59
2023/03/29 09:41:16;;;;;;;;;;;24.50;99.90;;;;;;4950276;29;19907;-58
2023/03/29 09:43:43;;;;;;;;;;;24.50;99.90;;;;;;4935211;29;19921;-59
2023/03/29 09:46:14;;;;;;;;;;;24.50;99.90;;;;;;4935356;29;20279;-59
2023/03/29 09:48:42;;;;;;;;;;;24.50;99.90;;;;;;4935319;29;19907;-58
2023/03/29 09:51:09;;;;;;;;;;;24.50;99.90;;;;;;4935347;29;19910;-58
2023/03/29 09:53:35;;;;;;;;;;;24.50;99.90;;;;;;4949744;29;19907;-59
2023/03/29 09:56:00;;;;;;;;;;;24.50;99.90;;;;;;4935511;29;19993;-59
2023/03/29 09:58:29;;;;;;;;;;;24.50;99.90;;;;;;4935604;29;19998;-59
2023/03/29 10:00:59;;;;;;;;;;;24.60;99.90;;;;;;4934854;29;19918;-59
2023/03/29 10:03:26;;;;;;;;;;;24.60;99.90;;;;;;4935153;29;19919;-58
2023/03/29 10:05:54;;;;;;;;;;;24.70;99.90;;;;;;4935222;29;19907;-58
2023/03/29 10:08:46;;;;;;;;;;;24.70;99.90;;;;;;4930517;29;19907;-58
2023/03/29 10:11:16;;;;;;;;;;;24.70;99.90;;;;;;4925938;29;20444;-58
2023/03/29 10:13:46;;;;;;;;;;;24.70;99.90;;;;;;4941271;29;19942;-58
2023/03/29 10:16:33;;;;;;;;;;;24.70;99.90;;;;;;4941300;29;19928;-58
2023/03/29 10:19:14;;;;;;;;;;;24.80;99.90;;;;;;4941622;29;19907;-58
2023/03/29 10:21:41;;;;;;;;;;;24.80;99.90;;;;;;4941581;29;19906;-58
2023/03/29 10:24:07;;;;;;;;;;;24.80;99.90;;;;;;4941112;29;20426;-58
2023/03/29 10:26:37;;;;;;;;;;;24.80;99.90;;;;;;4941315;29;19989;-58
2023/03/29 10:29:05;;;;;;;;;;;24.90;99.90;;;;;;4941172;29;20363;-58
2023/03/29 10:31:37;;;;;;;;;;;24.90;99.90;;;;;;4941424;29;19906;-58
2023/03/29 10:34:04;;;;;;;;;;;25.00;99.90;;;;;;4972110;28;19907;-60
2023/03/29 10:36:29;;;;;;;;;;;24.90;99.90;;;;;;4941487;29;19907;-58
2023/03/29 10:38:59;;;;;;;;;;;25.00;99.90;;;;;;4940983;29;19922;-59
2023/03/29 10:41:29;;;;;;;;;;;25.00;99.90;;;;;;4941279;29;19915;-58
2023/03/29 10:43:55;;;;;;;;;;;25.00;99.90;;;;;;4941059;29;20383;-58
2023/03/29 10:46:28;;;;;;;;;;;25.10;99.90;;;;;;4941062;29;19953;-58
2023/03/29 10:48:56;;;;;;;;;;;25.00;99.90;;;;;;4941106;29;19910;-58
2023/03/29 10:51:23;;;;;;;;;;;25.10;99.90;;;;;;4941286;29;20347;-59
2023/03/29 10:53:48;;;;;;;;;;;25.10;99.90;;;;;;4940987;29;19997;-58
2023/03/29 10:56:21;;;;;;;;;;;25.10;99.90;;;;;;4941177;29;19993;-57
2023/03/29 10:58:59;;;;;;;;;;;25.10;99.90;;;;;;4940748;29;19935;-58
2023/03/29 11:01:31;;;;;;;;;;;25.20;99.90;;;;;;4940609;29;19919;-60
2023/03/29 11:03:57;;;;;;;;;;;25.20;99.90;;;;;;4940935;29;20363;-57
2023/03/29 11:06:36;;;;;;;;;;;25.20;99.90;;;;;;4941033;29;19970;-59
2023/03/29 11:09:11;;;;;;;;;;;25.20;99.90;;;;;;4940960;29;19907;-57
2023/03/29 11:11:37;;;;;;;;;;;25.30;99.90;;;;;;4940899;29;19914;-57
2023/03/29 11:14:21;;;;;;;;;;;25.30;99.90;;;;;;4955625;29;20526;-57
2023/03/29 11:16:51;;;;;;;;;;;25.30;99.90;;;;;;4940731;29;19907;-58
2023/03/29 11:19:19;;;;;;;;;;;25.30;99.90;;;;;;4940786;29;19910;-58
2023/03/29 11:22:00;;;;;;;;;;;25.40;99.90;;;;;;4940516;29;19910;-58
2023/03/29 11:24:45;;;;;;;;;;;25.40;99.90;;;;;;4937554;29;19919;-60
2023/03/29 11:27:11;;;;;;;;;;;25.40;99.90;;;;;;4937967;29;19915;-59
2023/03/29 11:29:37;;;;;;;;;;;25.40;99.90;;;;;;4937589;29;19947;-59
2023/03/29 11:32:06;;;;;;;;;;;25.40;99.90;;;;;;4937769;29;19910;-59
2023/03/29 11:34:31;;;;;;;;;;;25.40;99.90;;;;;;4930014;29;19911;-59
2023/03/29 11:37:02;;;;;;;;;;;25.50;99.90;;;;;;4935832;29;19958;-58
2023/03/29 11:39:46;;;;;;;;;;;25.50;99.90;;;;;;4937425;29;20003;-58
2023/03/29 11:42:15;;;;;;;;;;;25.50;99.90;;;;;;4924735;29;20436;-59
2023/03/29 11:44:42;;;;;;;;;;;25.60;99.90;;;;;;4952175;29;19962;-59
2023/03/29 11:47:11;;;;;;;;;;;25.60;99.90;;;;;;4932529;29;20017;-55
2023/03/29 11:49:51;;;;;;;;;;;25.60;99.90;;;;;;4918499;29;20375;-58
2023/03/29 11:52:16;;;;;;;;;;;25.60;99.90;;;;;;4921747;29;19911;-60
2023/03/29 11:54:47;;;;;;;;;;;25.60;99.90;;;;;;4934728;29;19986;-61
2023/03/29 11:57:30;;;;;;;;;;;25.70;99.90;;;;;;4918337;29;19994;-61
2023/03/29 12:00:18;;;;;;;;;;;25.70;99.90;;;;;;4918025;29;19921;-60
2023/03/29 12:02:53;;;;;;;;;;;25.70;99.90;;;;;;4918084;29;20005;-58
2023/03/29 12:05:23;;;;;;;;;;;25.70;99.90;;;;;;4918185;29;20002;-58
2023/03/29 12:08:04;;;;;;;;;;;25.80;99.90;;;;;;4929083;29;20273;-56
2023/03/29 12:10:50;;;;;;;;;;;25.80;99.90;;;;;;4923107;29;19918;-58
2023/03/29 12:13:20;;;;;;;;;;;25.80;99.90;;;;;;4920426;29;19975;-56
2023/03/29 12:16:06;;;;;;;;;;;25.80;99.90;;;;;;4931223;29;19907;-57
2023/03/29 12:18:37;;;;;;;;;;;25.80;99.90;;;;;;4918711;29;19911;-54
2023/03/29 12:21:06;;;;;;;;;;;25.70;99.90;;;;;;4935661;29;20006;-56
2023/03/29 12:23:32;;;;;;;;;;;25.60;99.90;;;;;;4925350;29;19921;-54
2023/03/29 12:26:16;;;;;;;;;;;25.50;99.90;;;;;;4936775;29;20370;-55
2023/03/29 12:28:45;;;;;;;;;;;25.40;99.90;;;;;;4936698;29;20042;-56
2023/03/29 12:31:13;;;;;;;;;;;25.40;99.90;;;;;;4936512;29;19907;-56
2023/03/29 12:33:39;;;;;;;;;;;25.40;99.90;;;;;;4936482;29;19954;-56
2023/03/29 12:36:05;;;;;;;;;;;25.40;99.90;;;;;;4951361;29;20367;-55
2023/03/29 12:38:31;;;;;;;;;;;25.40;99.90;;;;;;4936481;29;20320;-56
2023/03/29 12:41:01;;;;;;;;;;;25.40;99.90;;;;;;4936414;29;19910;-55
2023/03/29 12:43:45;;;;;;;;;;;25.40;99.90;;;;;;4936404;29;20271;-56
2023/03/29 12:46:18;;;;;;;;;;;25.40;99.90;;;;;;4936211;29;19911;-56
2023/03/29 12:48:46;;;;;;;;;;;25.50;99.90;;;;;;4936423;29;19913;-55
2023/03/29 12:51:26;;;;;;;;;;;25.50;99.90;;;;;;4936310;29;19907;-55
2023/03/29 12:53:53;;;;;;;;;;;25.40;99.90;;;;;;4933878;29;19906;-55
2023/03/29 12:56:20;;;;;;;;;;;25.50;99.90;;;;;;4917328;29;20013;-54
2023/03/29 12:58:52;;;;;;;;;;;25.50;99.90;;;;;;4917343;29;19907;-56
2023/03/29 13:01:22;;;;;;;;;;;25.50;99.90;;;;;;4926641;29;19918;-56
2023/03/29 13:03:48;;;;;;;;;;;25.50;99.90;;;;;;4917405;29;19919;-52
2023/03/29 13:06:25;;;;;;;;;;;25.60;99.90;;;;;;4917070;29;19911;-56
2023/03/29 13:08:56;;;;;;;;;;;25.60;99.90;;;;;;4917269;29;19911;-55
2023/03/29 13:11:41;;;;;;;;;;;25.60;99.90;;;;;;4919351;29;20372;-54
2023/03/29 13:14:15;;;;;;;;;;;25.70;99.90;;;;;;4922854;29;19915;-53
2023/03/29 13:16:41;;;;;;;;;;;25.70;99.90;;;;;;4916936;29;20327;-53
2023/03/29 13:19:10;;;;;;;;;;;25.70;99.90;;;;;;4916945;29;20047;-53
2023/03/29 13:21:41;;;;;;;;;;;25.70;99.90;;;;;;4917125;29;19908;-56
2023/03/29 13:24:26;;;;;;;;;;;25.70;99.90;;;;;;4928458;29;19922;-58
2023/03/29 13:27:05;;;;;;;;;;;25.70;99.90;;;;;;4932895;29;19906;-56
2023/03/29 13:29:49;;;;;;;;;;;25.80;99.90;;;;;;4933634;29;19914;-56
2023/03/29 13:32:18;;;;;;;;;;;25.70;99.90;;;;;;4931477;29;20509;-58
2023/03/29 13:34:56;;;;;;;;;;;25.80;99.90;;;;;;4933664;29;19919;-59
2023/03/29 13:37:28;;;;;;;;;;;25.80;99.90;;;;;;4929693;29;19914;-58
2023/03/29 13:39:54;;;;;;;;;;;25.80;99.90;;;;;;4933198;29;19911;-58
2023/03/29 13:42:25;;;;;;;;;;;25.80;99.90;;;;;;4932643;29;19911;-58
2023/03/29 13:44:52;;;;;;;;;;;25.80;99.90;;;;;;4927363;29;19969;-58
2023/03/29 13:47:18;;;;;;;;;;;25.90;99.90;;;;;;4926493;29;19921;-57
2023/03/29 13:50:06;;;;;;;;;;;25.90;99.90;;;;;;4933101;29;19986;-58
2023/03/29 13:52:35;;;;;;;;;;;25.90;99.90;;;;;;4924503;29;19918;-58
2023/03/29 13:55:21;;;;;;;;;;;25.90;99.90;;;;;;4933028;29;19962;-58
2023/03/29 13:58:05;;;;;;;;;;;25.90;99.90;;;;;;4931248;29;20386;-57
2023/03/29 14:00:35;;;;;;;;;;;25.90;99.90;;;;;;4930380;29;20289;-57
2023/03/29 14:03:04;;;;;;;;;;;25.90;99.90;;;;;;4932821;29;19986;-56
2023/03/29 14:05:34;;;;;;;;;;;26.00;99.90;;;;;;4929386;29;19915;-57
2023/03/29 14:08:07;;;;;;;;;;;26.00;99.90;;;;;;4927189;29;19914;-56
2023/03/29 14:10:36;;;;;;;;;;;26.00;99.90;;;;;;4929750;29;19922;-58
2023/03/29 14:13:02;;;;;;;;;;;26.00;99.90;;;;;;4932777;29;19910;-56
2023/03/29 14:15:49;;;;;;;;;;;26.10;99.90;;;;;;4932576;29;19918;-58
2023/03/29 14:18:17;;;;;;;;;;;26.10;99.90;;;;;;4932152;29;19914;-56
2023/03/29 14:20:47;;;;;;;;;;;26.10;99.90;;;;;;4930570;29;19937;-55
2023/03/29 14:23:19;;;;;;;;;;;26.10;99.90;;;;;;4928734;29;20354;-57
2023/03/29 14:25:45;;;;;;;;;;;26.10;99.90;;;;;;4932867;29;19962;-57
2023/03/29 14:28:17;;;;;;;;;;;26.10;99.90;;;;;;4932937;29;20316;-57